Alden, NY (14004)

9:36 PM EDT on August 27, 2016 (GMT -0400)
| | Change Station

Elev -9999 ft 0.00 °N, 0.00 °E | Updated

Mostly Cloudy
Mostly Cloudy
74 °F
Feels Like 74 °F
N
8
Wind Variable Wind from SSE
Gusts mph

Today
High -- | Low -- °F
--% Chance of Precip.
Yesterday
High -- | Low -- °F
Precip. -- in
Pressure 30.16 in
Visibility 10.0 miles
Clouds Mostly Cloudy 20000 ft
Mostly Cloudy 27000 ft
Dew Point 60 °F
Humidity 62%
Rainfall --
Snow Depth Not available.
6:33 AM 7:56 PM
Waning Crescent, 20% visible
METAR KBUF 280054Z 09007KT 10SM BKN200 BKN270 24/17 A3016 RMK AO2 SLP211 T02390167
Pressure 30.16 in
Visibility 10.0 miles
Clouds Mostly Cloudy 20000 ft
Mostly Cloudy 27000 ft
Dew Point 60 °F
Humidity 62%
Rainfall --
Snow Depth Not available.
6:33 AM 7:56 PM
Waning Crescent, 20% visible
METAR KBUF 280054Z 09007KT 10SM BKN200 BKN270 24/17 A3016 RMK AO2 SLP211 T02390167

10-Day Weather Forecast

Almanac

Astronomy

Aug. 27, 2016 Rise Set
Actual Time
Civil Twilight
Nautical Twilight
Astronomical Twilight
Moon
Length of Visible Light
Length of Day
Tomorrow will be .
, % of the Moon is Illuminated

Today's Extremes

State Highs State Lows

Community

WunderPhotos

Upload Photos

1,935,486 photos uploaded!

WunderBlog® & News

Nearby

Air Quality

  Air Quality AQ Index Pollutant
Not available.

Snow Depth

Station Depth Elevation

Earthquake Activity

City Distance Mag. Time & Date
Minimum magnitude displayed is 2.5.

Coastal Water Temperatures

Place Temperature

Stations

Nearby Weather Stations

Station Location Temp. Windchill Dew Point Humidity Wind Precip. Elev Updated Type
                   

Watches & Warnings

There are currently no watches in effect.